Time;durP1;ratioP1;P1;durP2;ratioP2;P2;SDS_P1;SDS_P2;PMS_P1;PMS_P2;Temp;Humidity;BMP_temperature;BMP_pressure;BME280_temperature;BME280_humidity;BME280_pressure;Samples;Min_cycle;Max_cycle;Signal;HPM_P1;HPM_P2
2022/08/07 00:00:23;;;;;;;3.63;1.63;;;;;;;16.85;89.87;102652.63;5114204;27;20058;-59
2022/08/07 00:02:49;;;;;;;2.95;1.83;;;;;;;16.79;92.35;102648.69;5090724;27;20058;-59
2022/08/07 00:05:18;;;;;;;3.10;1.67;;;;;;;16.73;92.68;102645.78;5111583;27;20411;-60
2022/08/07 00:07:45;;;;;;;3.58;2.08;;;;;;;16.60;93.73;102646.06;5103599;27;20043;-60
2022/08/07 00:10:16;;;;;;;3.60;1.73;;;;;;;16.57;93.36;102641.91;5102763;27;20481;-59
2022/08/07 00:12:53;;;;;;;4.10;2.00;;;;;;;16.49;95.12;102643.59;5106639;27;20533;-60
2022/08/07 00:15:27;;;;;;;3.95;2.05;;;;;;;16.41;95.73;102645.13;5122159;27;20550;-59
2022/08/07 00:18:12;;;;;;;6.70;2.20;;;;;;;16.39;94.42;102646.25;5106769;27;20043;-58
2022/08/07 00:20:50;;;;;;;3.45;1.98;;;;;;;16.36;95.65;102643.88;5104934;27;20059;-57
2022/08/07 00:23:17;;;;;;;6.33;2.10;;;;;;;16.25;96.80;102641.34;5115132;27;20039;-59
2022/08/07 00:25:46;;;;;;;3.90;2.28;;;;;;;16.23;94.73;102638.88;5094451;27;20134;-59
2022/08/07 00:28:26;;;;;;;5.50;2.47;;;;;;;16.14;97.33;102639.69;5112175;27;20156;-60
2022/08/07 00:31:04;;;;;;;7.22;2.53;;;;;;;16.11;98.66;102645.25;5094397;27;20112;-58
2022/08/07 00:33:38;;;;;;;2.90;2.10;;;;;;;16.07;98.58;102631.47;5115034;27;20039;-58
2022/08/07 00:36:07;;;;;;;3.22;2.63;;;;;;;16.03;99.99;102638.00;5094648;27;20047;-60
2022/08/07 00:38:35;;;;;;;3.37;2.00;;;;;;;15.95;100.00;102633.41;5103109;27;20055;-58
2022/08/07 00:41:04;;;;;;;4.80;2.30;;;;;;;15.93;100.00;102631.88;5097280;27;20267;-58
2022/08/07 00:43:35;;;;;;;8.50;2.50;;;;;;;15.86;100.00;102623.66;5103598;27;20051;-59
2022/08/07 00:46:21;;;;;;;4.18;2.30;;;;;;;15.82;100.00;102624.91;5102260;27;20254;-59
2022/08/07 00:48:49;;;;;;;4.32;2.13;;;;;;;15.81;100.00;102624.03;5109175;27;20499;-60
2022/08/07 00:51:17;;;;;;;3.25;2.15;;;;;;;15.78;99.98;102628.81;5112351;27;20058;-58
2022/08/07 00:53:44;;;;;;;5.15;2.33;;;;;;;15.68;100.00;102617.31;5098494;27;20539;-57
2022/08/07 00:56:22;;;;;;;3.75;2.40;;;;;;;15.70;100.00;102620.66;5100371;28;20100;-56
2022/08/07 00:58:55;;;;;;;3.58;2.05;;;;;;;15.65;100.00;102620.25;5109709;27;20063;-57
2022/08/07 01:01:23;;;;;;;8.70;2.50;;;;;;;15.59;100.00;102616.31;5103561;27;20058;-57
2022/08/07 01:03:50;;;;;;;4.18;2.58;;;;;;;15.53;100.00;102617.69;5106585;27;20055;-56
2022/08/07 01:06:23;;;;;;;4.65;2.42;;;;;;;15.50;100.00;102620.59;5097792;27;20423;-57
2022/08/07 01:08:50;;;;;;;7.38;2.95;;;;;;;15.47;100.00;102610.31;5092824;27;20137;-58
2022/08/07 01:11:19;;;;;;;;;;;;;;;15.46;100.00;102610.44;5117066;27;20054;-57
2022/08/07 01:14:07;;;;;;;6.28;2.60;;;;;;;15.50;100.00;102611.84;5111282;27;19923;-56
2022/08/07 01:16:35;;;;;;;5.30;2.90;;;;;;;15.46;100.00;102607.78;5130292;27;20039;-57
2022/08/07 01:19:03;;;;;;;4.85;2.75;;;;;;;15.39;100.00;102610.97;5102004;27;20666;-59
2022/08/07 01:21:45;;;;;;;6.97;2.90;;;;;;;15.38;100.00;102616.41;5106849;27;20054;-57
2022/08/07 01:24:13;;;;;;;4.55;2.95;;;;;;;15.35;100.00;102611.41;5106622;27;20086;-60
2022/08/07 01:26:46;;;;;;;6.35;3.25;;;;;;;15.28;100.00;102611.09;5113766;27;20529;-56
2022/08/07 01:29:21;;;;;;;4.93;3.20;;;;;;;15.24;100.00;102607.03;5114387;27;20054;-57
2022/08/07 01:31:49;;;;;;;4.38;3.13;;;;;;;15.25;100.00;102605.22;5107546;27;20570;-55
2022/08/07 01:34:16;;;;;;;4.78;2.92;;;;;;;15.18;100.00;102608.41;5107965;27;20070;-56
2022/08/07 01:36:44;;;;;;;;;;;;;;;15.18;100.00;102604.94;5107868;27;20046;-57
2022/08/07 01:39:18;;;;;;;4.10;2.92;;;;;;;15.18;100.00;102600.47;5113028;27;19931;-57
2022/08/07 01:41:46;;;;;;;6.07;3.10;;;;;;;15.10;100.00;102602.94;5108444;27;20147;-57
2022/08/07 01:44:32;;;;;;;5.75;3.15;;;;;;;15.09;100.00;102598.63;5112798;27;20062;-57
2022/08/07 01:47:00;;;;;;;6.10;3.67;;;;;;;15.10;100.00;102600.31;5089977;27;20050;-59
2022/08/07 01:49:40;;;;;;;6.63;3.80;;;;;;;15.04;100.00;102598.19;5112477;27;20055;-57
2022/08/07 01:52:08;;;;;;;5.95;3.67;;;;;;;15.05;100.00;102597.22;5105227;27;20073;-56
2022/08/07 01:54:39;;;;;;;8.13;3.28;;;;;;;14.99;100.00;102592.44;5085229;27;20070;-57
2022/08/07 01:57:22;;;;;;;5.22;3.45;;;;;;;14.97;100.00;102592.56;5109303;27;20485;-57
2022/08/07 01:59:56;;;;;;;6.68;3.58;;;;;;;14.93;100.00;102596.47;5103510;27;20434;-57
2022/08/07 02:02:29;;;;;;;6.03;3.60;;;;;;;14.91;100.00;102594.94;5105992;27;20047;-57
2022/08/07 02:05:03;;;;;;;6.65;3.90;;;;;;;14.89;100.00;102595.06;5100718;27;20052;-57
2022/08/07 02:07:38;;;;;;;5.00;3.25;;;;;;;14.85;100.00;102591.00;5112111;27;20054;-57
2022/08/07 02:10:21;;;;;;;5.53;3.30;;;;;;;14.87;100.00;102594.34;5105360;27;20610;-56
2022/08/07 02:12:49;;;;;;;4.82;3.47;;;;;;;14.81;100.00;102593.06;5105118;27;20079;-57
2022/08/07 02:15:21;;;;;;;6.70;3.42;;;;;;;14.79;100.00;102586.25;5092228;28;20071;-56
2022/08/07 02:17:49;;;;;;;7.97;3.45;;;;;;;14.77;100.00;102590.81;5109227;28;20054;-59
2022/08/07 02:20:18;;;;;;;5.28;3.40;;;;;;;14.75;100.00;102585.66;5110615;28;20370;-57
2022/08/07 02:22:52;;;;;;;6.05;3.30;;;;;;;14.72;100.00;102585.94;5105666;28;20047;-57
2022/08/07 02:25:23;;;;;;;5.60;4.00;;;;;;;14.71;100.00;102581.63;5105676;28;20449;-57
2022/08/07 02:28:10;;;;;;;4.57;3.38;;;;;;;14.68;100.00;102583.69;5104544;28;20512;-57
2022/08/07 02:30:39;;;;;;;7.57;3.78;;;;;;;14.66;100.00;102581.16;5106774;28;20104;-57
2022/08/07 02:33:07;;;;;;;5.40;3.80;;;;;;;14.62;100.00;102580.59;5089648;28;20416;-57
2022/08/07 02:35:37;;;;;;;5.05;3.47;;;;;;;14.61;100.00;102586.00;5115952;28;20055;-57
2022/08/07 02:38:28;;;;;;;5.80;3.47;;;;;;;14.57;100.00;102585.44;5100838;28;20657;-59
2022/08/07 02:40:58;;;;;;;6.78;4.32;;;;;;;14.51;100.00;102578.00;5093615;28;20109;-57
2022/08/07 02:43:26;;;;;;;;;;;;;;;14.51;100.00;102580.63;5099668;28;20515;-57
2022/08/07 02:45:56;;;;;;;5.72;3.58;;;;;;;14.47;100.00;102576.59;5099453;28;19924;-60
2022/08/07 02:48:25;;;;;;;5.80;3.55;;;;;;;14.45;100.00;102586.44;5102371;28;20069;-59
2022/08/07 02:50:54;;;;;;;6.20;3.60;;;;;;;14.39;100.00;102586.97;5100719;28;20611;-57
2022/08/07 02:53:27;;;;;;;5.30;3.67;;;;;;;14.35;100.00;102578.44;5101789;28;20079;-57
2022/08/07 02:55:56;;;;;;;6.50;3.22;;;;;;;14.33;100.00;102577.75;5097659;28;20540;-58
2022/08/07 02:58:30;;;;;;;6.75;3.42;;;;;;;14.26;100.00;102578.38;5099551;28;20396;-57
2022/08/07 03:01:01;;;;;;;6.22;3.53;;;;;;;14.16;100.00;102573.03;5106040;28;20130;-60
2022/08/07 03:03:31;;;;;;;5.60;3.88;;;;;;;14.20;100.00;102577.09;5086956;28;20055;-57
2022/08/07 03:06:18;;;;;;;5.67;3.63;;;;;;;14.18;100.00;102568.47;5112907;28;20051;-57
2022/08/07 03:09:00;;;;;;;6.32;3.60;;;;;;;14.16;100.00;102571.22;5083342;28;20785;-57
2022/08/07 03:11:28;;;;;;;5.68;3.90;;;;;;;14.13;100.00;102579.41;5100776;28;20378;-58
2022/08/07 03:14:00;;;;;;;4.55;3.47;;;;;;;14.13;100.00;102573.28;5091821;27;20482;-58
2022/08/07 03:16:28;;;;;;;6.00;3.65;;;;;;;14.06;100.00;102567.66;5117477;27;20263;-57
2022/08/07 03:18:56;;;;;;;;;;;;;;;14.06;100.00;102578.22;5107148;27;20651;-58
2022/08/07 03:21:23;;;;;;;6.00;3.65;;;;;;;14.09;100.00;102580.59;5116622;27;19928;-58
2022/08/07 03:23:54;;;;;;;6.72;3.65;;;;;;;14.13;100.00;102576.78;5106003;27;20552;-56
2022/08/07 03:26:42;;;;;;;7.50;4.10;;;;;;;14.11;100.00;102570.75;5100517;27;20051;-58
2022/08/07 03:29:29;;;;;;;5.22;3.78;;;;;;;14.11;100.00;102573.38;5092611;27;20130;-59
2022/08/07 03:32:01;;;;;;;5.55;3.80;;;;;;;14.15;100.00;102577.47;5080889;28;20066;-58
2022/08/07 03:34:30;;;;;;;6.88;3.63;;;;;;;14.13;100.00;102574.13;5121579;27;20137;-58
2022/08/07 03:37:06;;;;;;;5.20;3.55;;;;;;;14.10;100.00;102568.25;5100897;27;20599;-59
2022/08/07 03:39:39;;;;;;;7.97;4.15;;;;;;;14.08;100.00;102565.75;5095716;27;20050;-58
2022/08/07 03:42:26;;;;;;;6.43;4.10;;;;;;;14.04;100.00;102562.50;5100423;27;20563;-57
2022/08/07 03:44:52;;;;;;;7.28;4.47;;;;;;;14.05;100.00;102568.63;5108712;27;20257;-59
2022/08/07 03:47:25;;;;;;;5.45;3.72;;;;;;;14.02;100.00;102568.88;5103071;28;20131;-59
2022/08/07 03:50:16;;;;;;;5.70;4.07;;;;;;;14.00;100.00;102563.72;5105880;27;20134;-60
2022/08/07 03:52:50;;;;;;;8.80;3.97;;;;;;;13.99;100.00;102569.97;5100559;27;20056;-59
2022/08/07 03:55:16;;;;;;;9.60;4.50;;;;;;;13.95;100.00;102567.72;5092206;27;20047;-60
2022/08/07 03:57:46;;;;;;;6.68;3.88;;;;;;;13.97;100.00;102565.78;5117605;27;20047;-59
2022/08/07 04:00:34;;;;;;;7.90;4.53;;;;;;;13.96;100.00;102579.94;5099294;27;20500;-59
2022/08/07 04:03:02;;;;;;;7.00;3.72;;;;;;;13.97;100.00;102576.34;5089300;27;20116;-59
2022/08/07 04:05:30;;;;;;;7.28;3.85;;;;;;;13.90;100.00;102573.38;5112580;27;20043;-57
2022/08/07 04:08:12;;;;;;;7.60;4.60;;;;;;;13.88;100.00;102572.66;5106139;27;20078;-58
2022/08/07 04:10:44;;;;;;;9.40;4.40;;;;;;;13.84;100.00;102579.97;5103313;27;20046;-56
2022/08/07 04:13:32;;;;;;;6.50;4.30;;;;;;;13.83;100.00;102580.09;5112356;27;20496;-56
2022/08/07 04:16:19;;;;;;;8.38;4.95;;;;;;;13.77;100.00;102575.31;5096769;27;20043;-59
2022/08/07 04:18:57;;;;;;;7.43;4.45;;;;;;;13.72;100.00;102573.06;5115941;27;20113;-59
2022/08/07 04:21:30;;;;;;;9.50;5.32;;;;;;;13.71;100.00;102581.09;5108053;27;20071;-58
2022/08/07 04:24:00;;;;;;;7.82;4.38;;;;;;;13.67;100.00;102583.16;5102028;27;20108;-58
2022/08/07 04:26:33;;;;;;;9.73;5.10;;;;;;;13.66;100.00;102586.72;5108150;27;20490;-58
2022/08/07 04:28:59;;;;;;;6.97;4.45;;;;;;;13.68;100.00;102582.19;5106934;27;20051;-59
2022/08/07 04:31:29;;;;;;;8.27;4.65;;;;;;;13.68;100.00;102586.63;5121050;27;20965;-60
2022/08/07 04:34:16;;;;;;;9.07;5.45;;;;;;;13.69;100.00;102596.22;5099485;27;20751;-58
2022/08/07 04:36:53;;;;;;;6.65;4.82;;;;;;;13.71;100.00;102603.03;5109621;27;20140;-58
2022/08/07 04:39:19;;;;;;;6.72;4.45;;;;;;;13.72;100.00;102596.81;5099126;27;20058;-58
2022/08/07 04:41:51;;;;;;;8.75;4.75;;;;;;;13.74;100.00;102601.94;5120409;27;20054;-59
2022/08/07 04:44:18;;;;;;;8.30;4.72;;;;;;;13.69;100.00;102604.13;5122873;27;20054;-58
2022/08/07 04:46:58;;;;;;;7.15;4.88;;;;;;;13.73;100.00;102600.28;5108342;27;20051;-59
2022/08/07 04:49:51;;;;;;;8.27;4.75;;;;;;;13.72;100.00;102602.09;5109362;27;20051;-58
2022/08/07 04:52:39;;;;;;;9.15;4.75;;;;;;;13.71;100.00;102602.19;5111262;27;20058;-58
2022/08/07 04:55:29;;;;;;;7.85;4.45;;;;;;;13.73;100.00;102600.28;5115593;27;20506;-58
2022/08/07 04:58:36;;;;;;;8.63;4.75;;;;;;;13.71;100.00;102596.94;5105685;27;20054;-60
2022/08/07 05:01:36;;;;;;;5.95;4.20;;;;;;;13.73;100.00;102608.19;5106202;27;20055;-59
2022/08/07 05:04:10;;;;;;;6.53;4.40;;;;;;;13.71;100.00;102608.31;5102194;27;20436;-59
2022/08/07 05:06:55;;;;;;;6.57;4.60;;;;;;;13.67;100.00;102611.31;5122051;27;20043;-59
2022/08/07 05:09:34;;;;;;;7.75;5.15;;;;;;;13.67;100.00;102611.31;5096583;27;20051;-59
2022/08/07 05:12:18;;;;;;;9.50;5.07;;;;;;;13.75;100.00;102611.53;5111344;27;20392;-58
2022/08/07 05:15:01;;;;;;;7.43;5.13;;;;;;;13.79;100.00;102612.97;5097562;27;20106;-59
2022/08/07 05:17:31;;;;;;;7.93;5.43;;;;;;;13.85;100.00;102609.84;5109105;27;20051;-61
2022/08/07 05:20:25;;;;;;;10.60;5.35;;;;;;;13.92;100.00;102610.19;5102136;27;20410;-59
2022/08/07 05:22:56;;;;;;;7.88;5.40;;;;;;;13.99;100.00;102613.97;5107757;27;20055;-59
2022/08/07 05:25:25;;;;;;;8.23;5.38;;;;;;;14.06;100.00;102612.53;5107866;27;20047;-59
2022/08/07 05:28:14;;;;;;;12.27;5.60;;;;;;;14.14;100.00;102611.91;5098413;27;20040;-59
2022/08/07 05:30:49;;;;;;;9.13;5.55;;;;;;;14.19;100.00;102618.47;5112523;27;20478;-59
2022/08/07 05:33:19;;;;;;;8.45;5.50;;;;;;;14.26;100.00;102612.69;5097387;27;20138;-59
2022/08/07 05:35:50;;;;;;;9.88;5.93;;;;;;;14.34;100.00;102620.81;5086207;28;20051;-59
2022/08/07 05:38:18;;;;;;;8.80;6.13;;;;;;;14.38;100.00;102619.59;5095135;27;20051;-58
2022/08/07 05:41:05;;;;;;;;;;;;;;;14.47;100.00;102618.00;5103762;27;20261;-59
2022/08/07 05:43:47;;;;;;;9.02;5.93;;;;;;;14.51;100.00;102614.97;5093441;27;19931;-59
2022/08/07 05:46:36;;;;;;;11.00;6.28;;;;;;;14.57;100.00;102622.41;5117791;27;20218;-61
2022/08/07 05:49:06;;;;;;;13.88;7.03;;;;;;;14.61;100.00;102615.06;5096366;27;20496;-58
2022/08/07 05:51:42;;;;;;;10.00;6.45;;;;;;;14.67;100.00;102621.63;5113226;27;20557;-59
2022/08/07 05:54:12;;;;;;;10.13;6.15;;;;;;;14.70;100.00;102619.56;5113976;27;20050;-59
2022/08/07 05:57:01;;;;;;;9.88;6.38;;;;;;;14.75;100.00;102617.38;5116514;27;20499;-59
2022/08/07 05:59:33;;;;;;;10.73;6.22;;;;;;;14.80;100.00;102622.28;5108942;27;20115;-59
2022/08/07 06:02:21;;;;;;;9.23;6.38;;;;;;;14.85;100.00;102620.06;5092130;28;20050;-59
2022/08/07 06:05:00;;;;;;;15.57;6.82;;;;;;;14.91;100.00;102629.28;5117051;27;20514;-58
2022/08/07 06:07:30;;;;;;;13.57;7.43;;;;;;;14.94;100.00;102635.13;5099999;27;20103;-57
2022/08/07 06:10:17;;;;;;;9.48;6.10;;;;;;;14.97;100.00;102632.22;5113081;27;20078;-58
2022/08/07 06:12:44;;;;;;;11.88;6.97;;;;;;;15.02;100.00;102630.03;5097438;27;20089;-59
2022/08/07 06:15:14;;;;;;;11.80;7.15;;;;;;;15.09;100.00;102637.44;5107502;27;20047;-57
2022/08/07 06:17:42;;;;;;;10.85;7.28;;;;;;;15.08;100.00;102626.03;5109368;28;20040;-57
2022/08/07 06:20:22;;;;;;;9.40;6.25;;;;;;;15.16;100.00;102630.66;5107832;28;20050;-58
2022/08/07 06:23:07;;;;;;;10.63;6.75;;;;;;;15.20;100.00;102632.06;5097970;28;20052;-59
2022/08/07 06:25:55;;;;;;;15.27;7.00;;;;;;;15.23;100.00;102635.28;5091132;28;20062;-59
2022/08/07 06:28:23;;;;;;;11.88;6.85;;;;;;;15.30;100.00;102637.38;5103375;28;21505;-59
2022/08/07 06:30:54;;;;;;;11.20;7.00;;;;;;;15.36;100.00;102637.69;5094684;28;20043;-59
2022/08/07 06:33:23;;;;;;;9.00;6.43;;;;;;;15.42;100.00;102637.13;5109277;28;20501;-58
2022/08/07 06:35:49;;;;;;;10.25;6.85;;;;;;;15.46;100.00;102628.94;5092919;28;20522;-59
2022/08/07 06:38:36;;;;;;;10.02;6.88;;;;;;;15.54;100.00;102631.75;5098100;28;20059;-57
2022/08/07 06:41:09;;;;;;;11.32;6.75;;;;;;;15.60;100.00;102634.72;5101821;28;20134;-59
2022/08/07 06:43:40;;;;;;;16.38;7.40;;;;;;;15.65;100.00;102631.66;5104187;28;20050;-59
2022/08/07 06:46:24;;;;;;;10.82;7.15;;;;;;;15.68;100.00;102626.09;5106700;28;20195;-59
2022/08/07 06:49:00;;;;;;;9.77;6.65;;;;;;;15.76;100.00;102628.09;5100423;28;20405;-58
2022/08/07 06:51:33;;;;;;;9.30;6.70;;;;;;;15.87;100.00;102629.78;5098325;27;20055;-57
2022/08/07 06:54:04;;;;;;;11.50;7.00;;;;;;;15.89;100.00;102619.88;5112284;27;20439;-59
2022/08/07 06:56:53;;;;;;;10.30;6.90;;;;;;;15.94;100.00;102612.38;5114061;27;20503;-59
2022/08/07 06:59:25;;;;;;;10.20;6.88;;;;;;;15.99;100.00;102612.78;5099646;27;20389;-59
2022/08/07 07:02:19;;;;;;;9.52;6.07;;;;;;;16.08;100.00;102609.31;5103287;27;20051;-57
2022/08/07 07:05:06;;;;;;;9.48;6.00;;;;;;;16.13;100.00;102593.88;5100825;27;20051;-59
2022/08/07 07:07:32;;;;;;;10.60;6.53;;;;;;;16.18;100.00;102596.09;5099512;27;20504;-59
2022/08/07 07:10:32;;;;;;;10.88;6.50;;;;;;;16.26;100.00;102604.16;5098823;27;20047;-59
2022/08/07 07:13:06;;;;;;;11.23;6.22;;;;;;;16.33;100.00;102604.44;5108824;27;20059;-60
2022/08/07 07:15:41;;;;;;;7.93;5.00;;;;;;;16.40;100.00;102606.34;5114384;27;20055;-57
2022/08/07 07:18:22;;;;;;;8.60;5.65;;;;;;;16.46;100.00;102596.19;5118061;27;20581;-59
2022/08/07 07:21:17;;;;;;;13.15;5.93;;;;;;;16.50;100.00;102603.69;5102994;27;20553;-59
2022/08/07 07:23:46;;;;;;;9.88;6.43;;;;;;;16.57;100.00;102609.28;5108263;27;20059;-59
2022/08/07 07:26:35;;;;;;;10.85;6.10;;;;;;;16.63;100.00;102605.22;5117412;27;20561;-59
2022/08/07 07:29:09;;;;;;;8.63;5.10;;;;;;;16.66;100.00;102591.69;5100318;27;20055;-60
2022/08/07 07:31:57;;;;;;;5.80;4.10;;;;;;;16.77;100.00;102600.28;5103884;28;20060;-59
2022/08/07 07:34:30;;;;;;;10.15;5.53;;;;;;;16.87;100.00;102602.13;5098256;27;20044;-59
2022/08/07 07:37:03;;;;;;;8.73;5.10;;;;;;;16.93;100.00;102604.19;5110329;27;20082;-60
2022/08/07 07:39:50;;;;;;;9.18;5.22;;;;;;;16.95;100.00;102610.19;5095271;28;20059;-59
2022/08/07 07:42:23;;;;;;;7.97;4.38;;;;;;;17.04;100.00;102604.00;5103971;27;20496;-59
2022/08/07 07:45:01;;;;;;;9.83;4.80;;;;;;;17.12;100.00;102605.94;5095786;28;20047;-59
2022/08/07 07:47:28;;;;;;;7.55;4.53;;;;;;;17.21;100.00;102607.72;5098926;27;20303;-58
2022/08/07 07:50:11;;;;;;;5.75;3.88;;;;;;;17.29;100.00;102612.25;5113093;27;20138;-60
2022/08/07 07:52:58;;;;;;;6.15;4.20;;;;;;;17.35;100.00;102611.69;5117676;27;20047;-59
2022/08/07 07:55:27;;;;;;;11.10;4.82;;;;;;;17.43;100.00;102608.31;5115461;27;20051;-59
2022/08/07 07:58:04;;;;;;;8.25;4.72;;;;;;;17.54;98.67;102611.59;5112042;27;20043;-56
2022/08/07 08:00:32;;;;;;;7.57;3.95;;;;;;;17.57;98.04;102603.31;5110966;27;20504;-57
2022/08/07 08:03:09;;;;;;;6.78;4.00;;;;;;;17.61;96.84;102595.06;5094556;27;20059;-60
2022/08/07 08:05:56;;;;;;;11.77;4.28;;;;;;;17.67;97.50;102602.44;5107875;27;20108;-59
2022/08/07 08:08:26;;;;;;;6.20;3.78;;;;;;;17.76;97.27;102604.19;5108387;27;20042;-58
2022/08/07 08:11:06;;;;;;;7.03;4.10;;;;;;;17.84;95.66;102603.44;5114217;27;20057;-60
2022/08/07 08:13:44;;;;;;;8.77;3.67;;;;;;;17.92;92.91;102600.91;5091459;27;20051;-60
2022/08/07 08:16:26;;;;;;;6.55;3.20;;;;;;;18.01;89.13;102599.97;5103932;27;20050;-60
2022/08/07 08:18:58;;;;;;;4.95;2.60;;;;;;;18.14;88.87;102599.59;5111716;27;20051;-61
2022/08/07 08:27:43;;;;;;;3.72;2.50;;;;;;;18.83;83.32;102597.94;5107463;27;20047;-59
2022/08/07 08:30:29;;;;;;;6.25;2.63;;;;;;;19.20;79.35;102586.13;5108314;27;20051;-60
2022/08/07 08:33:00;;;;;;;4.20;2.60;;;;;;;19.59;79.96;102590.09;5103918;27;20051;-59
2022/08/07 08:35:31;;;;;;;5.07;2.45;;;;;;;20.00;77.76;102587.50;5102215;27;20048;-58
2022/08/07 08:38:13;;;;;;;5.95;2.67;;;;;;;20.44;77.69;102574.63;5096805;27;20138;-58
2022/08/07 08:40:48;;;;;;;4.35;2.75;;;;;;;20.83;74.26;102578.41;5116636;27;20050;-59
2022/08/07 08:43:25;;;;;;;5.93;2.65;;;;;;;21.21;71.84;102573.25;5095837;27;20058;-58
2022/08/07 08:46:42;;;;;;;4.47;2.22;;;;;;;21.64;70.90;102576.38;5101788;27;20047;-57
2022/08/07 08:49:30;;;;;;;4.57;2.28;;;;;;;22.02;69.85;102576.44;5105752;27;20499;-57
2022/08/07 08:52:15;;;;;;;5.57;1.83;;;;;;;22.43;68.58;102573.41;5107255;27;20559;-60
2022/08/07 08:55:06;;;;;;;3.45;1.92;;;;;;;22.70;64.72;102571.94;5109508;27;20050;-58
2022/08/07 08:57:45;;;;;;;3.83;1.90;;;;;;;22.99;62.86;102575.59;5100617;27;20545;-59
2022/08/07 09:00:13;;;;;;;3.92;1.60;;;;;;;23.27;61.82;102568.59;5092286;27;20139;-60
2022/08/07 09:02:50;;;;;;;3.13;1.98;;;;;;;23.52;60.37;102562.84;5100234;28;20051;-60
2022/08/07 09:05:20;;;;;;;;;;;;;;;23.71;59.65;102563.25;5107591;27;20415;-56
2022/08/07 09:08:18;;;;;;;4.50;1.70;;;;;;;23.91;57.20;102569.63;5109797;27;20013;-59
2022/08/07 09:11:12;;;;;;;2.70;1.77;;;;;;;23.95;57.04;102562.06;5104043;27;20050;-60
2022/08/07 09:14:08;;;;;;;4.60;2.05;;;;;;;24.14;56.72;102560.56;5100393;27;20155;-60
2022/08/07 09:17:03;;;;;;;3.22;1.70;;;;;;;24.27;56.38;102561.47;5100247;27;20083;-59
2022/08/07 09:19:51;;;;;;;5.40;1.85;;;;;;;24.52;55.42;102562.91;5114001;27;20324;-60
2022/08/07 09:22:51;;;;;;;2.42;1.55;;;;;;;24.77;56.62;102557.88;5109871;27;20249;-61
2022/08/07 09:25:52;;;;;;;6.00;2.03;;;;;;;24.90;54.33;102565.19;5098550;27;20104;-59
2022/08/07 09:28:43;;;;;;;4.70;2.00;;;;;;;25.09;55.75;102563.56;5102227;27;20047;-60
2022/08/07 09:31:41;;;;;;;3.80;1.83;;;;;;;25.37;54.59;102561.63;5108681;27;20047;-61
2022/08/07 09:34:25;;;;;;;3.15;1.88;;;;;;;25.42;52.90;102552.97;5116786;27;20058;-60
2022/08/07 09:37:03;;;;;;;2.97;1.92;;;;;;;25.40;52.96;102546.97;5108711;27;20050;-58
2022/08/07 09:39:36;;;;;;;;;;;;;;;25.61;53.53;102545.97;5097603;27;20058;-61
2022/08/07 09:42:51;;;;;;;3.67;2.13;;;;;;;25.89;53.68;102545.75;5104696;27;19923;-59
2022/08/07 09:45:22;;;;;;;4.47;2.10;;;;;;;26.04;52.40;102549.09;5101002;27;20054;-59
2022/08/07 09:48:29;;;;;;;3.28;1.85;;;;;;;26.31;51.87;102548.25;5089251;27;20423;-59
2022/08/07 09:51:35;;;;;;;3.53;2.15;;;;;;;26.49;52.86;102540.34;5106054;27;20051;-60
2022/08/07 09:54:44;;;;;;;5.10;2.00;;;;;;;26.69;50.29;102542.97;5093996;27;20054;-59
2022/08/07 09:57:28;;;;;;;5.43;2.42;;;;;;;26.57;51.76;102533.91;5107042;27;20047;-58
2022/08/07 10:00:09;;;;;;;3.10;2.22;;;;;;;26.58;50.53;102530.16;5093964;28;20269;-60
2022/08/07 10:03:13;;;;;;;4.05;1.77;;;;;;;26.20;49.88;102522.81;5109604;27;20044;-59
2022/08/07 10:06:15;;;;;;;2.08;1.52;;;;;;;26.22;50.50;102520.75;5081608;28;20043;-61
2022/08/07 10:08:59;;;;;;;2.85;1.50;;;;;;;26.38;50.28;102514.94;5074819;28;20583;-60
2022/08/07 10:11:54;;;;;;;4.30;1.90;;;;;;;26.61;49.16;102517.13;5107045;27;20142;-60
2022/08/07 10:14:55;;;;;;;2.38;1.48;;;;;;;26.32;48.38;102510.38;5112439;28;20129;-60
2022/08/07 10:17:55;;;;;;;2.78;1.50;;;;;;;25.97;48.44;102510.66;5097150;28;20522;-61
2022/08/07 10:20:41;;;;;;;1.80;1.55;;;;;;;25.88;50.56;102506.50;5094381;28;20138;-58
2022/08/07 10:23:47;;;;;;;2.20;1.30;;;;;;;26.07;48.05;102496.78;5092273;28;20078;-60
2022/08/07 10:27:11;;;;;;;3.13;1.40;;;;;;;26.30;47.54;102499.00;5109065;28;20051;-61
2022/08/07 10:30:03;;;;;;;2.35;1.60;;;;;;;26.58;48.38;102500.56;5104486;27;20051;-60
2022/08/07 10:32:50;;;;;;;3.05;1.48;;;;;;;26.93;48.54;102500.22;5107692;27;20084;-59
2022/08/07 10:35:34;;;;;;;2.67;1.33;;;;;;;27.27;46.28;102490.13;5113237;27;20054;-59
2022/08/07 10:38:39;;;;;;;2.03;1.30;;;;;;;27.53;46.93;102495.28;5109601;27;20043;-60
2022/08/07 10:41:35;;;;;;;2.05;1.40;;;;;;;27.64;47.32;102484.84;5111205;27;20324;-61
2022/08/07 10:44:30;;;;;;;3.13;1.58;;;;;;;27.70;44.55;102490.19;5101593;28;20493;-59
2022/08/07 10:47:43;;;;;;;3.95;1.80;;;;;;;27.92;43.56;102490.63;5105899;27;20047;-60
2022/08/07 10:50:28;;;;;;;4.07;1.40;;;;;;;28.07;43.91;102484.88;5047846;28;20444;-60
2022/08/07 10:53:09;;;;;;;4.88;1.70;;;;;;;28.14;43.13;102479.41;5052271;28;20654;-60
2022/08/07 10:55:49;;;;;;;3.38;1.25;;;;;;;27.83;41.96;102488.41;5058258;28;20053;-60
2022/08/07 10:58:53;;;;;;;3.83;1.67;;;;;;;27.89;42.56;102480.28;5056082;28;20164;-59
2022/08/07 11:01:35;;;;;;;1.98;1.45;;;;;;;28.35;43.99;102470.88;5057147;28;20060;-60
2022/08/07 11:04:39;;;;;;;4.28;1.60;;;;;;;28.70;44.42;102472.94;5036021;28;20060;-60
2022/08/07 11:07:36;;;;;;;4.97;1.75;;;;;;;28.93;42.84;102466.81;5055744;28;20504;-60
2022/08/07 11:10:39;;;;;;;1.92;1.55;;;;;;;28.97;42.07;102459.06;5055681;28;20500;-60
2022/08/07 11:13:33;;;;;;;4.53;1.90;;;;;;;29.07;41.67;102456.66;5058337;28;20062;-60
2022/08/07 11:16:35;;;;;;;4.18;1.75;;;;;;;29.28;42.28;102455.28;5046137;28;20841;-59
2022/08/07 11:19:40;;;;;;;2.90;1.33;;;;;;;29.16;41.41;102449.03;5055364;28;20052;-59
2022/08/07 11:22:11;;;;;;;2.58;1.92;;;;;;;29.28;41.95;102446.38;5057073;28;20090;-60
2022/08/07 11:25:16;;;;;;;4.03;1.85;;;;;;;29.17;40.91;102438.00;5092768;28;20062;-60
2022/08/07 11:27:45;;;;;;;;;;;;;;;29.26;41.84;102432.25;5087835;28;20808;-60
2022/08/07 11:30:41;;;;;;;8.35;2.13;;;;;;;29.13;42.32;102430.63;5109210;28;19943;-61
2022/08/07 11:33:20;;;;;;;2.85;2.10;;;;;;;28.88;39.51;102428.06;5104598;27;20133;-61
2022/08/07 11:36:17;;;;;;;2.67;2.10;;;;;;;28.85;40.90;102432.03;5113626;27;20059;-62
2022/08/07 11:39:19;;;;;;;2.88;1.95;;;;;;;28.99;40.58;102419.97;5092651;28;20065;-58
2022/08/07 11:42:24;;;;;;;2.33;1.90;;;;;;;29.15;41.04;102421.22;5106625;28;20082;-60
2022/08/07 11:44:58;;;;;;;;;;;;;;;29.10;41.41;102420.22;5090153;28;20057;-60
2022/08/07 11:47:52;;;;;;;5.47;1.83;;;;;;;29.03;42.29;102423.03;5101143;28;19973;-60
2022/08/07 11:50:46;;;;;;;3.63;1.92;;;;;;;29.11;42.01;102411.06;5098338;27;20051;-60
2022/08/07 11:53:54;;;;;;;2.60;1.83;;;;;;;29.35;41.37;102409.25;5085596;28;20143;-60
2022/08/07 11:56:38;;;;;;;3.92;1.60;;;;;;;29.21;40.87;102405.94;5093300;28;20055;-60
2022/08/07 11:59:27;;;;;;;2.85;2.00;;;;;;;29.38;41.60;102401.50;5119746;27;20621;-60
2022/08/07 12:02:29;;;;;;;2.70;1.83;;;;;;;29.53;41.52;102406.41;5096551;28;20051;-60
2022/08/07 12:05:24;;;;;;;3.30;2.00;;;;;;;29.57;41.96;102398.66;5103913;27;20524;-61
2022/08/07 12:08:23;;;;;;;2.63;1.70;;;;;;;29.88;42.20;102397.47;5089438;28;20058;-61
2022/08/07 12:11:15;;;;;;;3.85;2.10;;;;;;;29.75;40.97;102398.53;5102194;28;20071;-59
2022/08/07 12:14:04;;;;;;;3.33;2.53;;;;;;;29.81;41.62;102395.97;5104810;28;20174;-59
2022/08/07 12:16:35;;;;;;;3.67;1.95;;;;;;;29.91;41.65;102388.91;5101248;28;20131;-60
2022/08/07 12:19:16;;;;;;;3.47;2.03;;;;;;;30.11;40.93;102396.59;5090811;28;20468;-60
2022/08/07 12:22:05;;;;;;;4.47;2.30;;;;;;;30.16;41.31;102401.28;5059332;27;1334757;-60
2022/08/07 12:28:45;;;;;;;3.58;2.35;;;;;;;30.85;40.57;102389.56;5113638;27;20043;-60
2022/08/07 12:31:27;;;;;;;6.53;2.20;;;;;;;30.15;40.57;102397.75;5112471;27;20138;-63